sensor_id;sensor_type;location;lat;lon;timestamp;P1;durP1;ratioP1;P2;durP2;ratioP2
60098;SDS011;62818;49.394;8.686;2023-04-23T00:00:29;6.07;;;4.03;;
60098;SDS011;62818;49.394;8.686;2023-04-23T00:01:30;7.07;;;4.47;;
60098;SDS011;62818;49.394;8.686;2023-04-23T00:02:34;7.82;;;3.85;;
60098;SDS011;62818;49.394;8.686;2023-04-23T00:03:36;6.88;;;3.90;;
60098;SDS011;62818;49.394;8.686;2023-04-23T00:04:40;5.78;;;3.78;;
60098;SDS011;62818;49.394;8.686;2023-04-23T00:05:51;8.20;;;3.80;;
60098;SDS011;62818;49.394;8.686;2023-04-23T00:06:56;7.20;;;3.53;;
60098;SDS011;62818;49.394;8.686;2023-04-23T00:07:59;7.43;;;4.10;;
60098;SDS011;62818;49.394;8.686;2023-04-23T00:09:01;7.18;;;3.75;;
60098;SDS011;62818;49.394;8.686;2023-04-23T00:10:03;9.10;;;4.07;;
60098;SDS011;62818;49.394;8.686;2023-04-23T00:11:07;6.55;;;3.70;;
60098;SDS011;62818;49.394;8.686;2023-04-23T00:12:09;7.65;;;3.85;;
60098;SDS011;62818;49.394;8.686;2023-04-23T00:13:11;7.68;;;4.15;;
60098;SDS011;62818;49.394;8.686;2023-04-23T00:14:12;6.88;;;4.07;;
60098;SDS011;62818;49.394;8.686;2023-04-23T00:15:13;9.88;;;4.03;;
60098;SDS011;62818;49.394;8.686;2023-04-23T00:16:14;8.45;;;4.03;;
60098;SDS011;62818;49.394;8.686;2023-04-23T00:17:15;5.72;;;3.90;;
60098;SDS011;62818;49.394;8.686;2023-04-23T00:18:15;4.33;;;3.87;;
60098;SDS011;62818;49.394;8.686;2023-04-23T00:19:16;5.53;;;3.80;;
60098;SDS011;62818;49.394;8.686;2023-04-23T00:20:16;5.43;;;3.77;;
60098;SDS011;62818;49.394;8.686;2023-04-23T00:21:17;4.63;;;3.75;;
60098;SDS011;62818;49.394;8.686;2023-04-23T00:22:18;6.90;;;4.20;;
60098;SDS011;62818;49.394;8.686;2023-04-23T00:23:21;5.97;;;4.10;;
60098;SDS011;62818;49.394;8.686;2023-04-23T00:24:21;6.27;;;3.70;;
60098;SDS011;62818;49.394;8.686;2023-04-23T00:25:22;4.57;;;3.30;;
60098;SDS011;62818;49.394;8.686;2023-04-23T00:26:22;5.60;;;3.57;;
60098;SDS011;62818;49.394;8.686;2023-04-23T00:27:23;8.30;;;3.80;;
60098;SDS011;62818;49.394;8.686;2023-04-23T00:28:23;6.57;;;3.60;;
60098;SDS011;62818;49.394;8.686;2023-04-23T00:29:24;6.63;;;3.80;;
60098;SDS011;62818;49.394;8.686;2023-04-23T00:30:24;4.53;;;3.30;;
60098;SDS011;62818;49.394;8.686;2023-04-23T00:31:25;8.97;;;3.70;;
60098;SDS011;62818;49.394;8.686;2023-04-23T00:32:26;4.43;;;3.90;;
60098;SDS011;62818;49.394;8.686;2023-04-23T00:33:26;6.33;;;3.63;;
60098;SDS011;62818;49.394;8.686;2023-04-23T00:34:27;8.07;;;3.90;;
60098;SDS011;62818;49.394;8.686;2023-04-23T00:35:27;7.05;;;4.07;;
60098;SDS011;62818;49.394;8.686;2023-04-23T00:36:28;8.67;;;3.80;;
60098;SDS011;62818;49.394;8.686;2023-04-23T00:37:28;7.50;;;4.10;;
60098;SDS011;62818;49.394;8.686;2023-04-23T00:38:29;6.67;;;3.80;;
60098;SDS011;62818;49.394;8.686;2023-04-23T00:39:30;5.10;;;4.00;;
60098;SDS011;62818;49.394;8.686;2023-04-23T00:40:30;5.37;;;4.17;;
60098;SDS011;62818;49.394;8.686;2023-04-23T00:41:31;6.33;;;4.43;;
60098;SDS011;62818;49.394;8.686;2023-04-23T00:42:31;7.43;;;4.10;;
60098;SDS011;62818;49.394;8.686;2023-04-23T00:43:32;9.17;;;4.17;;
60098;SDS011;62818;49.394;8.686;2023-04-23T00:44:32;8.43;;;4.30;;
60098;SDS011;62818;49.394;8.686;2023-04-23T00:45:33;5.27;;;3.90;;
60098;SDS011;62818;49.394;8.686;2023-04-23T00:46:34;6.00;;;4.00;;
60098;SDS011;62818;49.394;8.686;2023-04-23T00:48:36;5.72;;;4.03;;
60098;SDS011;62818;49.394;8.686;2023-04-23T00:49:37;7.07;;;4.43;;
60098;SDS011;62818;49.394;8.686;2023-04-23T00:50:38;5.25;;;3.88;;
60098;SDS011;62818;49.394;8.686;2023-04-23T00:51:39;7.93;;;3.85;;
60098;SDS011;62818;49.394;8.686;2023-04-23T00:52:39;7.07;;;4.00;;
60098;SDS011;62818;49.394;8.686;2023-04-23T00:53:40;6.03;;;4.37;;
60098;SDS011;62818;49.394;8.686;2023-04-23T00:54:40;9.40;;;3.97;;
60098;SDS011;62818;49.394;8.686;2023-04-23T00:55:41;7.05;;;4.10;;
60098;SDS011;62818;49.394;8.686;2023-04-23T00:56:42;5.80;;;4.07;;
60098;SDS011;62818;49.394;8.686;2023-04-23T00:57:42;4.80;;;4.07;;
60098;SDS011;62818;49.394;8.686;2023-04-23T00:58:43;11.60;;;4.80;;
60098;SDS011;62818;49.394;8.686;2023-04-23T00:59:44;10.98;;;4.28;;
60098;SDS011;62818;49.394;8.686;2023-04-23T01:00:46;4.60;;;4.10;;
60098;SDS011;62818;49.394;8.686;2023-04-23T01:01:48;5.78;;;4.15;;
60098;SDS011;62818;49.394;8.686;2023-04-23T01:02:48;6.53;;;3.75;;
60098;SDS011;62818;49.394;8.686;2023-04-23T01:03:51;9.25;;;4.13;;
60098;SDS011;62818;49.394;8.686;2023-04-23T01:04:52;6.35;;;4.28;;
60098;SDS011;62818;49.394;8.686;2023-04-23T01:05:54;7.13;;;4.60;;
60098;SDS011;62818;49.394;8.686;2023-04-23T01:06:55;8.98;;;4.50;;
60098;SDS011;62818;49.394;8.686;2023-04-23T01:07:57;5.50;;;4.07;;
60098;SDS011;62818;49.394;8.686;2023-04-23T01:08:58;7.23;;;4.40;;
60098;SDS011;62818;49.394;8.686;2023-04-23T01:09:59;8.77;;;4.35;;
60098;SDS011;62818;49.394;8.686;2023-04-23T01:10:59;5.67;;;4.20;;
60098;SDS011;62818;49.394;8.686;2023-04-23T01:12:02;6.97;;;4.30;;
60098;SDS011;62818;49.394;8.686;2023-04-23T01:13:05;5.65;;;3.95;;
60098;SDS011;62818;49.394;8.686;2023-04-23T01:14:07;6.93;;;4.43;;
60098;SDS011;62818;49.394;8.686;2023-04-23T01:15:09;4.47;;;3.80;;
60098;SDS011;62818;49.394;8.686;2023-04-23T01:16:10;5.25;;;4.05;;
60098;SDS011;62818;49.394;8.686;2023-04-23T01:17:11;7.85;;;4.53;;
60098;SDS011;62818;49.394;8.686;2023-04-23T01:18:11;6.47;;;4.70;;
60098;SDS011;62818;49.394;8.686;2023-04-23T01:19:12;7.22;;;4.15;;
60098;SDS011;62818;49.394;8.686;2023-04-23T01:20:15;5.90;;;4.38;;
60098;SDS011;62818;49.394;8.686;2023-04-23T01:21:16;5.88;;;4.63;;
60098;SDS011;62818;49.394;8.686;2023-04-23T01:22:18;8.27;;;4.53;;
60098;SDS011;62818;49.394;8.686;2023-04-23T01:23:19;7.90;;;4.70;;
60098;SDS011;62818;49.394;8.686;2023-04-23T01:24:21;9.88;;;4.53;;
60098;SDS011;62818;49.394;8.686;2023-04-23T01:25:21;8.00;;;5.00;;
60098;SDS011;62818;49.394;8.686;2023-04-23T01:26:22;7.90;;;5.20;;
60098;SDS011;62818;49.394;8.686;2023-04-23T01:27:23;7.93;;;4.85;;
60098;SDS011;62818;49.394;8.686;2023-04-23T01:28:24;11.80;;;5.20;;
60098;SDS011;62818;49.394;8.686;2023-04-23T01:29:25;7.38;;;5.05;;
60098;SDS011;62818;49.394;8.686;2023-04-23T01:30:26;8.05;;;4.53;;
60098;SDS011;62818;49.394;8.686;2023-04-23T01:31:28;6.45;;;4.82;;
60098;SDS011;62818;49.394;8.686;2023-04-23T01:32:30;7.13;;;5.18;;
60098;SDS011;62818;49.394;8.686;2023-04-23T01:33:31;6.72;;;5.00;;
60098;SDS011;62818;49.394;8.686;2023-04-23T01:34:33;6.68;;;5.05;;
60098;SDS011;62818;49.394;8.686;2023-04-23T01:36:35;7.47;;;5.00;;
60098;SDS011;62818;49.394;8.686;2023-04-23T01:37:37;6.53;;;4.93;;
60098;SDS011;62818;49.394;8.686;2023-04-23T01:39:39;8.02;;;5.20;;
60098;SDS011;62818;49.394;8.686;2023-04-23T01:40:40;5.93;;;4.97;;
60098;SDS011;62818;49.394;8.686;2023-04-23T01:41:41;7.10;;;4.97;;
60098;SDS011;62818;49.394;8.686;2023-04-23T01:42:43;7.05;;;5.03;;
60098;SDS011;62818;49.394;8.686;2023-04-23T01:43:43;10.13;;;5.60;;
60098;SDS011;62818;49.394;8.686;2023-04-23T01:45:45;8.10;;;5.68;;
60098;SDS011;62818;49.394;8.686;2023-04-23T01:46:46;10.70;;;5.70;;
60098;SDS011;62818;49.394;8.686;2023-04-23T01:47:46;7.93;;;5.47;;
60098;SDS011;62818;49.394;8.686;2023-04-23T01:48:47;8.70;;;5.60;;
60098;SDS011;62818;49.394;8.686;2023-04-23T01:49:48;9.10;;;5.53;;
60098;SDS011;62818;49.394;8.686;2023-04-23T01:50:49;7.30;;;5.30;;
60098;SDS011;62818;49.394;8.686;2023-04-23T01:51:51;8.20;;;5.68;;
60098;SDS011;62818;49.394;8.686;2023-04-23T01:52:51;6.03;;;5.40;;
60098;SDS011;62818;49.394;8.686;2023-04-23T01:53:52;6.73;;;5.53;;
60098;SDS011;62818;49.394;8.686;2023-04-23T01:54:53;7.03;;;5.23;;
60098;SDS011;62818;49.394;8.686;2023-04-23T01:55:53;10.53;;;5.47;;
60098;SDS011;62818;49.394;8.686;2023-04-23T01:56:55;8.23;;;6.40;;
60098;SDS011;62818;49.394;8.686;2023-04-23T01:57:57;7.90;;;5.68;;
60098;SDS011;62818;49.394;8.686;2023-04-23T01:58:58;10.63;;;6.43;;
60098;SDS011;62818;49.394;8.686;2023-04-23T02:00:06;8.20;;;6.43;;
60098;SDS011;62818;49.394;8.686;2023-04-23T02:01:13;8.80;;;6.15;;
60098;SDS011;62818;49.394;8.686;2023-04-23T02:02:14;9.00;;;6.33;;
60098;SDS011;62818;49.394;8.686;2023-04-23T02:03:15;7.20;;;6.45;;
60098;SDS011;62818;49.394;8.686;2023-04-23T02:04:16;8.97;;;6.37;;
60098;SDS011;62818;49.394;8.686;2023-04-23T02:05:17;9.15;;;6.43;;
60098;SDS011;62818;49.394;8.686;2023-04-23T02:06:19;7.53;;;6.35;;
60098;SDS011;62818;49.394;8.686;2023-04-23T02:07:20;10.10;;;7.37;;
60098;SDS011;62818;49.394;8.686;2023-04-23T02:08:20;9.07;;;6.93;;
60098;SDS011;62818;49.394;8.686;2023-04-23T02:09:21;10.10;;;7.07;;
60098;SDS011;62818;49.394;8.686;2023-04-23T02:10:22;9.10;;;6.87;;
60098;SDS011;62818;49.394;8.686;2023-04-23T02:11:22;8.03;;;6.73;;
60098;SDS011;62818;49.394;8.686;2023-04-23T02:12:23;10.63;;;6.90;;
60098;SDS011;62818;49.394;8.686;2023-04-23T02:13:25;10.07;;;6.60;;
60098;SDS011;62818;49.394;8.686;2023-04-23T02:14:25;9.70;;;6.60;;
60098;SDS011;62818;49.394;8.686;2023-04-23T02:15:26;9.30;;;6.77;;
60098;SDS011;62818;49.394;8.686;2023-04-23T02:16:27;10.68;;;8.00;;
60098;SDS011;62818;49.394;8.686;2023-04-23T02:17:27;9.47;;;7.10;;
60098;SDS011;62818;49.394;8.686;2023-04-23T02:18:28;10.17;;;6.77;;
60098;SDS011;62818;49.394;8.686;2023-04-23T02:19:28;11.50;;;6.73;;
60098;SDS011;62818;49.394;8.686;2023-04-23T02:20:33;8.23;;;6.00;;
60098;SDS011;62818;49.394;8.686;2023-04-23T02:21:37;9.10;;;6.28;;
60098;SDS011;62818;49.394;8.686;2023-04-23T02:22:38;8.90;;;6.73;;
60098;SDS011;62818;49.394;8.686;2023-04-23T02:23:40;10.18;;;6.60;;
60098;SDS011;62818;49.394;8.686;2023-04-23T02:24:41;12.23;;;6.70;;
60098;SDS011;62818;49.394;8.686;2023-04-23T02:25:43;8.07;;;6.22;;
60098;SDS011;62818;49.394;8.686;2023-04-23T02:26:43;10.27;;;6.57;;
60098;SDS011;62818;49.394;8.686;2023-04-23T02:27:44;8.40;;;6.13;;
60098;SDS011;62818;49.394;8.686;2023-04-23T02:28:45;7.23;;;6.20;;
60098;SDS011;62818;49.394;8.686;2023-04-23T02:29:47;7.28;;;5.75;;
60098;SDS011;62818;49.394;8.686;2023-04-23T02:30:48;9.57;;;5.78;;
60098;SDS011;62818;49.394;8.686;2023-04-23T02:31:48;8.07;;;6.37;;
60098;SDS011;62818;49.394;8.686;2023-04-23T02:32:49;7.53;;;5.97;;
60098;SDS011;62818;49.394;8.686;2023-04-23T02:33:50;9.25;;;6.25;;
60098;SDS011;62818;49.394;8.686;2023-04-23T02:34:51;12.67;;;6.40;;
60098;SDS011;62818;49.394;8.686;2023-04-23T02:35:51;9.00;;;6.37;;
60098;SDS011;62818;49.394;8.686;2023-04-23T02:36:51;7.17;;;5.90;;
60098;SDS011;62818;49.394;8.686;2023-04-23T02:37:55;8.83;;;5.67;;
60098;SDS011;62818;49.394;8.686;2023-04-23T02:38:55;6.35;;;5.72;;
60098;SDS011;62818;49.394;8.686;2023-04-23T02:39:56;11.00;;;5.93;;
60098;SDS011;62818;49.394;8.686;2023-04-23T02:40:56;9.27;;;6.70;;
60098;SDS011;62818;49.394;8.686;2023-04-23T02:41:57;10.27;;;6.00;;
60098;SDS011;62818;49.394;8.686;2023-04-23T02:42:57;9.93;;;6.18;;
60098;SDS011;62818;49.394;8.686;2023-04-23T02:43:58;7.13;;;5.43;;
60098;SDS011;62818;49.394;8.686;2023-04-23T02:44:58;7.83;;;5.53;;
60098;SDS011;62818;49.394;8.686;2023-04-23T02:45:59;8.20;;;5.70;;
60098;SDS011;62818;49.394;8.686;2023-04-23T02:46:59;6.93;;;5.70;;
60098;SDS011;62818;49.394;8.686;2023-04-23T02:48:00;6.50;;;5.57;;
60098;SDS011;62818;49.394;8.686;2023-04-23T02:49:01;5.90;;;5.20;;
60098;SDS011;62818;49.394;8.686;2023-04-23T02:50:01;6.63;;;5.57;;
60098;SDS011;62818;49.394;8.686;2023-04-23T02:51:05;5.95;;;5.35;;
60098;SDS011;62818;49.394;8.686;2023-04-23T02:52:08;7.97;;;5.50;;
60098;SDS011;62818;49.394;8.686;2023-04-23T02:53:08;6.55;;;5.97;;
60098;SDS011;62818;49.394;8.686;2023-04-23T02:54:10;8.23;;;5.57;;
60098;SDS011;62818;49.394;8.686;2023-04-23T02:55:10;6.18;;;5.57;;
60098;SDS011;62818;49.394;8.686;2023-04-23T02:56:11;8.47;;;5.27;;
60098;SDS011;62818;49.394;8.686;2023-04-23T02:57:12;7.23;;;5.20;;
60098;SDS011;62818;49.394;8.686;2023-04-23T02:58:14;6.18;;;5.10;;
60098;SDS011;62818;49.394;8.686;2023-04-23T02:59:15;9.60;;;5.63;;
60098;SDS011;62818;49.394;8.686;2023-04-23T03:00:15;6.83;;;4.97;;
60098;SDS011;62818;49.394;8.686;2023-04-23T03:01:17;7.20;;;4.97;;
60098;SDS011;62818;49.394;8.686;2023-04-23T03:02:17;5.80;;;4.93;;
60098;SDS011;62818;49.394;8.686;2023-04-23T03:03:18;7.20;;;5.23;;
60098;SDS011;62818;49.394;8.686;2023-04-23T03:04:19;6.87;;;5.33;;
60098;SDS011;62818;49.394;8.686;2023-04-23T03:05:19;7.27;;;5.43;;
60098;SDS011;62818;49.394;8.686;2023-04-23T03:06:20;6.53;;;4.87;;
60098;SDS011;62818;49.394;8.686;2023-04-23T03:07:21;7.10;;;5.50;;
60098;SDS011;62818;49.394;8.686;2023-04-23T03:08:21;7.33;;;5.77;;
60098;SDS011;62818;49.394;8.686;2023-04-23T03:09:22;5.53;;;4.83;;
60098;SDS011;62818;49.394;8.686;2023-04-23T03:10:22;8.43;;;4.83;;
60098;SDS011;62818;49.394;8.686;2023-04-23T03:11:23;8.67;;;5.37;;
60098;SDS011;62818;49.394;8.686;2023-04-23T03:12:23;7.07;;;4.97;;
60098;SDS011;62818;49.394;8.686;2023-04-23T03:13:24;7.20;;;4.80;;
60098;SDS011;62818;49.394;8.686;2023-04-23T03:14:25;6.43;;;4.55;;
60098;SDS011;62818;49.394;8.686;2023-04-23T03:15:26;5.07;;;4.63;;
60098;SDS011;62818;49.394;8.686;2023-04-23T03:16:27;9.37;;;5.00;;
60098;SDS011;62818;49.394;8.686;2023-04-23T03:17:30;7.05;;;4.90;;
60098;SDS011;62818;49.394;8.686;2023-04-23T03:18:30;7.83;;;5.07;;
60098;SDS011;62818;49.394;8.686;2023-04-23T03:19:31;5.47;;;4.87;;
60098;SDS011;62818;49.394;8.686;2023-04-23T03:20:32;5.55;;;4.95;;
60098;SDS011;62818;49.394;8.686;2023-04-23T03:21:36;6.03;;;4.40;;
60098;SDS011;62818;49.394;8.686;2023-04-23T03:22:36;5.93;;;4.70;;
60098;SDS011;62818;49.394;8.686;2023-04-23T03:23:37;6.33;;;4.60;;
60098;SDS011;62818;49.394;8.686;2023-04-23T03:24:37;8.87;;;4.93;;
60098;SDS011;62818;49.394;8.686;2023-04-23T03:25:38;5.87;;;5.20;;
60098;SDS011;62818;49.394;8.686;2023-04-23T03:26:38;7.43;;;5.00;;
60098;SDS011;62818;49.394;8.686;2023-04-23T03:27:39;5.87;;;4.97;;
60098;SDS011;62818;49.394;8.686;2023-04-23T03:28:39;6.70;;;4.57;;
60098;SDS011;62818;49.394;8.686;2023-04-23T03:29:40;10.60;;;4.65;;
60098;SDS011;62818;49.394;8.686;2023-04-23T03:30:41;6.50;;;5.10;;
60098;SDS011;62818;49.394;8.686;2023-04-23T03:31:42;11.07;;;5.83;;
60098;SDS011;62818;49.394;8.686;2023-04-23T03:32:42;5.87;;;4.73;;
60098;SDS011;62818;49.394;8.686;2023-04-23T03:33:43;6.33;;;4.67;;
60098;SDS011;62818;49.394;8.686;2023-04-23T03:34:43;6.07;;;4.90;;
60098;SDS011;62818;49.394;8.686;2023-04-23T03:35:44;5.13;;;4.63;;
60098;SDS011;62818;49.394;8.686;2023-04-23T03:36:44;7.47;;;5.53;;
60098;SDS011;62818;49.394;8.686;2023-04-23T03:37:47;5.07;;;4.57;;
60098;SDS011;62818;49.394;8.686;2023-04-23T03:38:48;6.17;;;4.70;;
60098;SDS011;62818;49.394;8.686;2023-04-23T03:39:48;5.10;;;4.60;;
60098;SDS011;62818;49.394;8.686;2023-04-23T03:40:50;5.15;;;4.63;;
60098;SDS011;62818;49.394;8.686;2023-04-23T03:41:50;6.83;;;4.80;;
60098;SDS011;62818;49.394;8.686;2023-04-23T03:42:51;5.20;;;4.70;;
60098;SDS011;62818;49.394;8.686;2023-04-23T03:43:51;8.00;;;4.93;;
60098;SDS011;62818;49.394;8.686;2023-04-23T03:44:52;4.67;;;4.23;;
60098;SDS011;62818;49.394;8.686;2023-04-23T03:45:52;7.10;;;4.97;;
60098;SDS011;62818;49.394;8.686;2023-04-23T03:46:53;5.30;;;4.57;;
60098;SDS011;62818;49.394;8.686;2023-04-23T03:47:53;5.70;;;4.60;;
60098;SDS011;62818;49.394;8.686;2023-04-23T03:48:54;6.60;;;4.60;;
60098;SDS011;62818;49.394;8.686;2023-04-23T03:49:55;7.40;;;4.23;;
60098;SDS011;62818;49.394;8.686;2023-04-23T03:50:56;5.50;;;4.25;;
60098;SDS011;62818;49.394;8.686;2023-04-23T03:51:57;7.50;;;4.25;;
60098;SDS011;62818;49.394;8.686;2023-04-23T03:52:57;9.77;;;4.43;;
60098;SDS011;62818;49.394;8.686;2023-04-23T03:53:58;4.93;;;3.80;;
60098;SDS011;62818;49.394;8.686;2023-04-23T03:54:58;5.90;;;4.43;;
60098;SDS011;62818;49.394;8.686;2023-04-23T03:55:59;6.97;;;4.07;;
60098;SDS011;62818;49.394;8.686;2023-04-23T03:56:59;4.77;;;4.27;;
60098;SDS011;62818;49.394;8.686;2023-04-23T03:58:01;5.05;;;3.88;;
60098;SDS011;62818;49.394;8.686;2023-04-23T03:59:02;5.65;;;4.05;;
60098;SDS011;62818;49.394;8.686;2023-04-23T04:00:03;4.30;;;3.90;;
60098;SDS011;62818;49.394;8.686;2023-04-23T04:01:07;6.10;;;4.20;;
60098;SDS011;62818;49.394;8.686;2023-04-23T04:02:07;3.93;;;3.53;;
60098;SDS011;62818;49.394;8.686;2023-04-23T04:03:08;4.13;;;3.73;;
60098;SDS011;62818;49.394;8.686;2023-04-23T04:04:08;4.13;;;3.73;;
60098;SDS011;62818;49.394;8.686;2023-04-23T04:05:09;4.67;;;3.83;;
60098;SDS011;62818;49.394;8.686;2023-04-23T04:06:10;3.92;;;3.55;;
60098;SDS011;62818;49.394;8.686;2023-04-23T04:07:11;4.53;;;3.67;;
60098;SDS011;62818;49.394;8.686;2023-04-23T04:08:11;4.65;;;4.03;;
60098;SDS011;62818;49.394;8.686;2023-04-23T04:09:12;5.60;;;3.50;;
60098;SDS011;62818;49.394;8.686;2023-04-23T04:10:12;4.20;;;3.80;;
60098;SDS011;62818;49.394;8.686;2023-04-23T04:12:15;4.50;;;3.72;;
60098;SDS011;62818;49.394;8.686;2023-04-23T04:13:15;4.13;;;3.73;;
60098;SDS011;62818;49.394;8.686;2023-04-23T04:14:16;3.50;;;3.10;;
60098;SDS011;62818;49.394;8.686;2023-04-23T04:15:16;4.53;;;3.67;;
60098;SDS011;62818;49.394;8.686;2023-04-23T04:16:19;6.13;;;5.28;;
60098;SDS011;62818;49.394;8.686;2023-04-23T04:17:19;6.13;;;4.83;;
60098;SDS011;62818;49.394;8.686;2023-04-23T04:18:20;7.80;;;5.30;;
60098;SDS011;62818;49.394;8.686;2023-04-23T04:19:20;7.13;;;4.20;;
60098;SDS011;62818;49.394;8.686;2023-04-23T04:20:21;6.13;;;3.63;;
60098;SDS011;62818;49.394;8.686;2023-04-23T04:21:21;5.63;;;3.23;;
60098;SDS011;62818;49.394;8.686;2023-04-23T04:22:21;4.70;;;3.03;;
60098;SDS011;62818;49.394;8.686;2023-04-23T04:23:23;6.63;;;3.22;;
60098;SDS011;62818;49.394;8.686;2023-04-23T04:24:23;6.60;;;3.30;;
60098;SDS011;62818;49.394;8.686;2023-04-23T04:25:24;3.92;;;3.17;;
60098;SDS011;62818;49.394;8.686;2023-04-23T04:26:27;3.13;;;2.75;;
60098;SDS011;62818;49.394;8.686;2023-04-23T04:27:31;5.00;;;3.05;;
60098;SDS011;62818;49.394;8.686;2023-04-23T04:28:34;3.90;;;2.72;;
60098;SDS011;62818;49.394;8.686;2023-04-23T04:29:36;2.78;;;2.55;;
60098;SDS011;62818;49.394;8.686;2023-04-23T04:30:39;6.25;;;3.28;;
60098;SDS011;62818;49.394;8.686;2023-04-23T04:31:41;4.47;;;2.90;;
60098;SDS011;62818;49.394;8.686;2023-04-23T04:32:42;3.90;;;2.95;;
60098;SDS011;62818;49.394;8.686;2023-04-23T04:33:44;4.38;;;3.00;;
60098;SDS011;62818;49.394;8.686;2023-04-23T04:34:45;4.88;;;2.83;;
60098;SDS011;62818;49.394;8.686;2023-04-23T04:35:45;2.90;;;2.70;;
60098;SDS011;62818;49.394;8.686;2023-04-23T04:36:48;3.00;;;2.75;;
60098;SDS011;62818;49.394;8.686;2023-04-23T04:37:52;4.10;;;2.80;;
60098;SDS011;62818;49.394;8.686;2023-04-23T04:38:53;3.17;;;2.85;;
60098;SDS011;62818;49.394;8.686;2023-04-23T04:39:59;5.28;;;2.78;;
60098;SDS011;62818;49.394;8.686;2023-04-23T04:41:01;5.20;;;3.38;;
60098;SDS011;62818;49.394;8.686;2023-04-23T04:42:02;4.00;;;3.20;;
60098;SDS011;62818;49.394;8.686;2023-04-23T04:43:05;5.03;;;3.15;;
60098;SDS011;62818;49.394;8.686;2023-04-23T04:44:06;4.30;;;3.90;;
60098;SDS011;62818;49.394;8.686;2023-04-23T04:45:10;5.18;;;3.90;;
60098;SDS011;62818;49.394;8.686;2023-04-23T04:46:11;6.25;;;4.20;;
60098;SDS011;62818;49.394;8.686;2023-04-23T04:47:11;4.87;;;4.37;;
60098;SDS011;62818;49.394;8.686;2023-04-23T04:48:12;5.55;;;4.00;;
60098;SDS011;62818;49.394;8.686;2023-04-23T04:49:13;5.38;;;4.35;;
60098;SDS011;62818;49.394;8.686;2023-04-23T04:50:20;4.60;;;4.07;;
60098;SDS011;62818;49.394;8.686;2023-04-23T04:51:20;7.57;;;6.00;;
60098;SDS011;62818;49.394;8.686;2023-04-23T04:52:20;7.50;;;5.80;;
60098;SDS011;62818;49.394;8.686;2023-04-23T04:53:21;6.43;;;5.73;;
60098;SDS011;62818;49.394;8.686;2023-04-23T04:54:22;6.57;;;5.43;;
60098;SDS011;62818;49.394;8.686;2023-04-23T04:55:23;6.05;;;5.35;;
60098;SDS011;62818;49.394;8.686;2023-04-23T04:56:23;6.07;;;5.50;;
60098;SDS011;62818;49.394;8.686;2023-04-23T04:57:24;7.38;;;6.43;;
60098;SDS011;62818;49.394;8.686;2023-04-23T04:58:25;7.43;;;5.67;;
60098;SDS011;62818;49.394;8.686;2023-04-23T04:59:25;7.80;;;6.20;;
60098;SDS011;62818;49.394;8.686;2023-04-23T05:00:26;6.37;;;5.77;;
60098;SDS011;62818;49.394;8.686;2023-04-23T05:01:28;6.82;;;5.65;;
60098;SDS011;62818;49.394;8.686;2023-04-23T05:02:29;6.32;;;5.70;;
60098;SDS011;62818;49.394;8.686;2023-04-23T05:03:30;6.83;;;6.20;;
60098;SDS011;62818;49.394;8.686;2023-04-23T05:04:31;7.63;;;5.88;;
60098;SDS011;62818;49.394;8.686;2023-04-23T05:05:32;6.63;;;5.60;;
60098;SDS011;62818;49.394;8.686;2023-04-23T05:06:32;6.90;;;6.30;;
60098;SDS011;62818;49.394;8.686;2023-04-23T05:07:33;7.03;;;6.17;;
60098;SDS011;62818;49.394;8.686;2023-04-23T05:08:33;7.23;;;6.30;;
60098;SDS011;62818;49.394;8.686;2023-04-23T05:09:34;11.47;;;6.47;;
60098;SDS011;62818;49.394;8.686;2023-04-23T05:10:34;6.77;;;5.93;;
60098;SDS011;62818;49.394;8.686;2023-04-23T05:11:35;9.27;;;5.73;;
60098;SDS011;62818;49.394;8.686;2023-04-23T05:12:36;6.68;;;6.05;;
60098;SDS011;62818;49.394;8.686;2023-04-23T05:13:40;8.50;;;6.43;;
60098;SDS011;62818;49.394;8.686;2023-04-23T05:14:41;8.20;;;5.87;;
60098;SDS011;62818;49.394;8.686;2023-04-23T05:15:41;7.07;;;5.93;;
60098;SDS011;62818;49.394;8.686;2023-04-23T05:16:42;6.95;;;6.25;;
60098;SDS011;62818;49.394;8.686;2023-04-23T05:17:43;8.07;;;5.87;;
60098;SDS011;62818;49.394;8.686;2023-04-23T05:18:43;6.53;;;5.93;;
60098;SDS011;62818;49.394;8.686;2023-04-23T05:19:44;6.23;;;5.63;;
60098;SDS011;62818;49.394;8.686;2023-04-23T05:20:44;6.83;;;6.10;;
60098;SDS011;62818;49.394;8.686;2023-04-23T05:21:45;7.47;;;5.70;;
60098;SDS011;62818;49.394;8.686;2023-04-23T05:22:46;6.97;;;6.27;;
60098;SDS011;62818;49.394;8.686;2023-04-23T05:23:47;8.10;;;6.97;;
60098;SDS011;62818;49.394;8.686;2023-04-23T05:24:48;8.60;;;6.53;;
60098;SDS011;62818;49.394;8.686;2023-04-23T05:25:49;7.27;;;6.57;;
60098;SDS011;62818;49.394;8.686;2023-04-23T05:26:52;8.02;;;6.28;;
60098;SDS011;62818;49.394;8.686;2023-04-23T05:27:52;9.00;;;6.20;;
60098;SDS011;62818;49.394;8.686;2023-04-23T05:28:53;6.77;;;6.17;;
60098;SDS011;62818;49.394;8.686;2023-04-23T05:29:53;9.03;;;6.10;;
60098;SDS011;62818;49.394;8.686;2023-04-23T05:30:54;8.93;;;6.30;;
60098;SDS011;62818;49.394;8.686;2023-04-23T05:31:55;8.70;;;6.07;;
60098;SDS011;62818;49.394;8.686;2023-04-23T05:32:56;6.90;;;6.20;;
60098;SDS011;62818;49.394;8.686;2023-04-23T05:33:56;6.63;;;5.93;;
60098;SDS011;62818;49.394;8.686;2023-04-23T05:34:57;9.60;;;6.67;;
60098;SDS011;62818;49.394;8.686;2023-04-23T05:35:59;8.48;;;6.25;;
60098;SDS011;62818;49.394;8.686;2023-04-23T05:36:59;8.60;;;7.77;;
60098;SDS011;62818;49.394;8.686;2023-04-23T05:38:01;8.02;;;6.88;;
60098;SDS011;62818;49.394;8.686;2023-04-23T05:39:02;7.40;;;6.27;;
60098;SDS011;62818;49.394;8.686;2023-04-23T05:40:02;6.93;;;6.17;;
60098;SDS011;62818;49.394;8.686;2023-04-23T05:41:05;8.32;;;6.45;;
60098;SDS011;62818;49.394;8.686;2023-04-23T05:42:06;7.23;;;5.90;;
60098;SDS011;62818;49.394;8.686;2023-04-23T05:43:06;9.30;;;6.67;;
60098;SDS011;62818;49.394;8.686;2023-04-23T05:44:07;7.27;;;6.40;;
60098;SDS011;62818;49.394;8.686;2023-04-23T05:45:08;8.73;;;6.33;;
60098;SDS011;62818;49.394;8.686;2023-04-23T05:46:08;7.65;;;6.85;;
60098;SDS011;62818;49.394;8.686;2023-04-23T05:47:09;7.07;;;6.33;;
60098;SDS011;62818;49.394;8.686;2023-04-23T05:48:11;7.35;;;6.65;;
60098;SDS011;62818;49.394;8.686;2023-04-23T05:49:11;7.53;;;6.70;;
60098;SDS011;62818;49.394;8.686;2023-04-23T05:50:12;12.50;;;8.57;;
60098;SDS011;62818;49.394;8.686;2023-04-23T05:51:12;8.93;;;6.47;;
60098;SDS011;62818;49.394;8.686;2023-04-23T05:52:13;8.80;;;5.90;;
60098;SDS011;62818;49.394;8.686;2023-04-23T05:53:13;7.47;;;6.13;;
60098;SDS011;62818;49.394;8.686;2023-04-23T05:54:14;5.97;;;5.47;;
60098;SDS011;62818;49.394;8.686;2023-04-23T05:55:15;7.13;;;5.67;;
60098;SDS011;62818;49.394;8.686;2023-04-23T05:56:15;6.23;;;5.63;;
60098;SDS011;62818;49.394;8.686;2023-04-23T05:57:16;6.17;;;5.37;;
60098;SDS011;62818;49.394;8.686;2023-04-23T05:58:16;8.15;;;5.78;;
60098;SDS011;62818;49.394;8.686;2023-04-23T05:59:18;6.22;;;5.38;;
60098;SDS011;62818;49.394;8.686;2023-04-23T06:00:18;9.23;;;5.50;;
60098;SDS011;62818;49.394;8.686;2023-04-23T06:01:19;6.55;;;5.10;;
60098;SDS011;62818;49.394;8.686;2023-04-23T06:02:20;6.50;;;5.50;;
60098;SDS011;62818;49.394;8.686;2023-04-23T06:03:20;6.73;;;5.40;;
60098;SDS011;62818;49.394;8.686;2023-04-23T06:04:21;7.47;;;5.30;;
60098;SDS011;62818;49.394;8.686;2023-04-23T06:05:21;6.43;;;5.23;;
60098;SDS011;62818;49.394;8.686;2023-04-23T06:06:22;8.27;;;5.20;;
60098;SDS011;62818;49.394;8.686;2023-04-23T06:07:22;5.93;;;4.80;;
60098;SDS011;62818;49.394;8.686;2023-04-23T06:08:23;6.73;;;5.10;;
60098;SDS011;62818;49.394;8.686;2023-04-23T06:09:23;6.77;;;5.20;;
60098;SDS011;62818;49.394;8.686;2023-04-23T06:10:23;7.00;;;5.60;;
60098;SDS011;62818;49.394;8.686;2023-04-23T06:11:24;6.50;;;5.63;;
60098;SDS011;62818;49.394;8.686;2023-04-23T06:12:25;5.53;;;4.97;;
60098;SDS011;62818;49.394;8.686;2023-04-23T06:13:25;6.40;;;5.13;;